Time;durP1;ratioP1;P1;durP2;ratioP2;P2;SDS_P1;SDS_P2;PMS_P1;PMS_P2;Temp;Humidity;BMP_temperature;BMP_pressure;BME280_temperature;BME280_humidity;BME280_pressure;Samples;Min_cycle;Max_cycle;Signal;HPM_P1;HPM_P2
2022/06/13 00:01:51;;;;;;;5.35;1.77;;;20.90;99.90;;;;;;5095430;28;20024;-67
2022/06/13 00:04:17;;;;;;;6.95;1.73;;;20.80;99.90;;;;;;5095394;28;20024;-68
2022/06/13 00:06:43;;;;;;;5.75;1.63;;;20.80;99.90;;;;;;5095117;28;20074;-67
2022/06/13 00:09:09;;;;;;;3.75;1.70;;;20.90;99.90;;;;;;5094991;28;20024;-67
2022/06/13 00:11:35;;;;;;;7.03;1.80;;;20.90;99.90;;;;;;5076157;28;20028;-67
2022/06/13 00:14:02;;;;;;;;;;;20.80;99.90;;;;;;5094495;28;20415;-66
2022/06/13 00:16:27;;;;;;;5.67;2.17;;;20.80;99.90;;;;;;5093828;28;19911;-66
2022/06/13 00:18:53;;;;;;;3.83;1.88;;;20.80;99.90;;;;;;5094199;28;20023;-67
2022/06/13 00:21:26;;;;;;;4.70;1.73;;;20.70;99.90;;;;;;5093763;28;20032;-66
2022/06/13 00:23:52;;;;;;;3.50;1.67;;;20.70;99.90;;;;;;5093579;28;20024;-66
2022/06/13 00:26:18;;;;;;;;;;;20.60;99.90;;;;;;5094139;28;20057;-68
2022/06/13 00:28:44;;;;;;;8.75;1.70;;;20.50;99.90;;;;;;5093536;28;20314;-66
2022/06/13 00:31:09;;;;;;;7.22;1.70;;;20.50;99.90;;;;;;5093407;28;20099;-66
2022/06/13 00:33:35;;;;;;;2.88;1.45;;;20.40;99.90;;;;;;5093692;28;20455;-66
2022/06/13 00:36:01;;;;;;;7.30;1.55;;;20.50;99.90;;;;;;5093468;28;20376;-67
2022/06/13 00:38:26;;;;;;;3.88;1.38;;;20.50;99.90;;;;;;5093238;28;20032;-67
2022/06/13 00:40:52;;;;;;;4.68;1.60;;;20.50;99.90;;;;;;5093869;28;20024;-67
2022/06/13 00:43:17;;;;;;;2.47;1.40;;;20.60;99.90;;;;;;5093718;28;20024;-66
2022/06/13 00:45:43;;;;;;;3.90;1.38;;;20.60;99.90;;;;;;5093384;28;20120;-66
2022/06/13 00:48:13;;;;;;;3.95;1.70;;;20.60;99.90;;;;;;5093148;28;20027;-66
2022/06/13 00:50:55;;;;;;;2.70;1.65;;;20.80;99.90;;;;;;5074824;28;20035;-66
2022/06/13 00:53:25;;;;;;;4.88;1.60;;;20.70;99.90;;;;;;5093084;28;20048;-66
2022/06/13 00:56:01;;;;;;;3.13;1.45;;;20.80;99.90;;;;;;5092922;28;20020;-66
2022/06/13 00:58:30;;;;;;;5.70;1.50;;;20.70;99.90;;;;;;5093175;28;20052;-65
2022/06/13 01:00:57;;;;;;;6.28;1.90;;;20.70;99.90;;;;;;5093147;28;20381;-66
2022/06/13 01:03:26;;;;;;;3.10;1.50;;;20.70;99.90;;;;;;5093593;28;20453;-66
2022/06/13 01:05:53;;;;;;;3.55;1.50;;;20.80;99.90;;;;;;5074544;28;20054;-66
2022/06/13 01:08:21;;;;;;;3.03;1.48;;;20.80;99.90;;;;;;5092952;28;20028;-66
2022/06/13 01:13:40;;;;;;;2.75;1.50;;;20.60;99.90;;;;;;5093547;28;20093;-66
2022/06/13 01:16:42;;;;;;;4.00;1.50;;;20.60;99.90;;;;;;5093158;28;20077;-66
2022/06/13 01:19:17;;;;;;;2.00;1.40;;;20.50;99.90;;;;;;5093343;28;20020;-66
2022/06/13 01:22:08;;;;;;;2.42;1.55;;;20.50;99.90;;;;;;5092936;28;20016;-68
2022/06/13 01:25:16;;;;;;;5.57;1.60;;;20.80;99.90;;;;;;5093716;28;20032;-63
2022/06/13 01:28:12;;;;;;;4.38;1.67;;;20.60;99.90;;;;;;5093531;28;20407;-63
2022/06/13 01:31:04;;;;;;;4.63;1.80;;;20.60;99.90;;;;;;5093298;28;20385;-64
2022/06/13 01:34:00;;;;;;;4.90;1.83;;;20.50;99.90;;;;;;5093064;28;20468;-64
2022/06/13 01:37:06;;;;;;;4.10;2.13;;;20.70;99.90;;;;;;5092872;28;20031;-63
2022/06/13 01:39:44;;;;;;;4.50;2.10;;;20.60;99.90;;;;;;5031259;28;20068;-62
2022/06/13 01:42:30;;;;;;;3.38;1.27;;;20.60;99.90;;;;;;5031210;28;20061;-62
2022/06/13 01:44:56;;;;;;;3.30;1.80;;;20.60;99.90;;;;;;5031377;28;20073;-62
2022/06/13 01:47:46;;;;;;;3.22;1.58;;;20.50;99.90;;;;;;5031051;28;20053;-63
2022/06/13 01:50:30;;;;;;;3.75;1.92;;;20.50;99.90;;;;;;5032798;28;20037;-62
2022/06/13 01:53:16;;;;;;;4.05;1.80;;;20.50;99.90;;;;;;5035113;28;20033;-62
2022/06/13 01:55:59;;;;;;;5.53;1.85;;;20.50;99.90;;;;;;5034512;28;20102;-63
2022/06/13 01:58:45;;;;;;;2.03;1.30;;;20.50;99.90;;;;;;5034448;28;20045;-62
2022/06/13 02:01:22;;;;;;;3.90;1.37;;;20.70;99.90;;;;;;5034411;28;20060;-62
2022/06/13 02:03:53;;;;;;;4.15;1.80;;;20.60;99.90;;;;;;5034275;28;20044;-62
2022/06/13 02:06:29;;;;;;;5.60;1.45;;;20.50;99.90;;;;;;5033943;28;20049;-63
2022/06/13 02:09:03;;;;;;;5.38;1.52;;;20.50;99.90;;;;;;5034140;28;20477;-63
2022/06/13 02:11:32;;;;;;;3.90;1.80;;;20.40;99.90;;;;;;5096959;28;20027;-63
2022/06/13 02:14:13;;;;;;;5.40;1.83;;;20.40;99.90;;;;;;5095995;28;20089;-63
2022/06/13 02:16:44;;;;;;;5.78;2.00;;;20.40;99.90;;;;;;5096055;28;20024;-62
2022/06/13 02:19:31;;;;;;;9.35;1.80;;;20.40;99.90;;;;;;5096105;28;20047;-63
2022/06/13 02:21:59;;;;;;;3.70;1.50;;;20.30;99.90;;;;;;5096263;28;20052;-62
2022/06/13 02:24:33;;;;;;;4.15;1.48;;;20.30;99.90;;;;;;5096120;28;20036;-63
2022/06/13 02:26:59;;;;;;;5.70;1.75;;;20.30;99.90;;;;;;5096095;28;20052;-63
2022/06/13 02:29:28;;;;;;;;;;;20.20;99.90;;;;;;5096352;28;20024;-63
2022/06/13 02:32:07;;;;;;;6.82;1.65;;;20.20;99.90;;;;;;5095722;28;19904;-64
2022/06/13 02:34:46;;;;;;;9.10;1.83;;;20.30;98.30;;;;;;5096405;28;20038;-63
2022/06/13 02:37:28;;;;;;;5.53;1.83;;;20.30;97.90;;;;;;5095811;28;20130;-62
2022/06/13 02:40:20;;;;;;;5.63;1.75;;;20.50;96.40;;;;;;5095825;28;20020;-63
2022/06/13 02:42:52;;;;;;;5.50;1.60;;;20.30;96.20;;;;;;5095572;28;20376;-63
2022/06/13 02:45:24;;;;;;;4.75;1.58;;;20.30;96.50;;;;;;5095678;28;20488;-63
2022/06/13 02:48:10;;;;;;;5.25;1.60;;;20.30;96.10;;;;;;5095900;28;20065;-62
2022/06/13 02:51:04;;;;;;;4.88;1.70;;;20.40;95.80;;;;;;5095419;28;20020;-62
2022/06/13 02:53:35;;;;;;;11.90;1.73;;;20.30;95.30;;;;;;5095606;28;20051;-63
2022/06/13 02:57:23;;;;;;;5.28;1.45;;;20.20;95.90;;;;;;5095124;28;20439;-62
2022/06/13 02:59:47;;;;;;;7.20;1.77;;;20.20;96.00;;;;;;5095033;28;20024;-62
2022/06/13 03:02:18;;;;;;;6.32;2.00;;;20.20;95.60;;;;;;5094734;28;20028;-62
2022/06/13 03:04:57;;;;;;;6.03;1.70;;;20.10;95.60;;;;;;5095129;28;20020;-63
2022/06/13 03:07:40;;;;;;;6.97;1.77;;;20.00;95.60;;;;;;5098576;28;20035;-63
2022/06/13 03:10:15;;;;;;;3.50;1.40;;;19.90;96.00;;;;;;5101510;28;20024;-62
2022/06/13 03:13:01;;;;;;;4.50;1.50;;;19.80;96.00;;;;;;5096633;28;20111;-62
2022/06/13 03:15:38;;;;;;;6.75;2.15;;;19.80;96.20;;;;;;5099539;28;20062;-64
2022/06/13 03:18:16;;;;;;;7.03;1.75;;;19.70;96.60;;;;;;5095836;28;20024;-62
2022/06/13 03:20:50;;;;;;;8.38;2.00;;;19.70;97.40;;;;;;5095124;28;20020;-62
2022/06/13 03:23:41;;;;;;;5.32;1.73;;;19.60;98.30;;;;;;5094962;28;20082;-62
2022/06/13 03:26:15;;;;;;;5.55;1.95;;;19.50;99.20;;;;;;5086396;28;20089;-62
2022/06/13 03:29:00;;;;;;;5.18;1.98;;;19.50;99.90;;;;;;5094926;28;20024;-62
2022/06/13 03:31:34;;;;;;;5.28;2.15;;;19.40;99.90;;;;;;5094525;28;20020;-62
2022/06/13 03:34:18;;;;;;;7.28;1.98;;;19.50;99.30;;;;;;5094739;28;20055;-62
2022/06/13 03:36:49;;;;;;;8.40;1.85;;;19.50;97.90;;;;;;5076256;28;20035;-62
2022/06/13 03:39:22;;;;;;;5.07;1.60;;;19.50;98.00;;;;;;5094567;28;20028;-62
2022/06/13 03:41:55;;;;;;;6.88;1.55;;;19.60;98.50;;;;;;5076195;28;20059;-62
2022/06/13 03:44:29;;;;;;;4.68;1.77;;;19.50;97.60;;;;;;5094788;28;20051;-62
2022/06/13 03:47:03;;;;;;;7.43;1.80;;;19.50;98.00;;;;;;5094217;28;20035;-62
2022/06/13 03:49:47;;;;;;;5.00;1.50;;;19.50;97.70;;;;;;5094243;28;20020;-62
2022/06/13 03:52:14;;;;;;;6.55;1.58;;;19.40;97.90;;;;;;5094416;28;20035;-63
2022/06/13 03:54:45;;;;;;;;;;;19.40;98.10;;;;;;5095078;28;20035;-63
2022/06/13 03:57:19;;;;;;;4.85;1.58;;;19.30;98.20;;;;;;5094449;28;20279;-63
2022/06/13 04:00:04;;;;;;;6.90;1.95;;;19.30;98.10;;;;;;5094727;28;20031;-63
2022/06/13 04:02:33;;;;;;;12.98;2.40;;;19.50;98.30;;;;;;5094675;28;20102;-63
2022/06/13 04:04:59;;;;;;;4.05;1.40;;;19.30;97.90;;;;;;5094589;28;20024;-63
2022/06/13 04:07:27;;;;;;;3.80;1.75;;;19.20;98.10;;;;;;5094743;28;20047;-63
2022/06/13 04:10:02;;;;;;;10.77;2.25;;;19.20;98.30;;;;;;5094468;28;20357;-63
2022/06/13 04:12:34;;;;;;;9.68;2.00;;;19.10;98.30;;;;;;5093284;28;20027;-63
2022/06/13 04:15:20;;;;;;;7.68;1.92;;;19.10;98.50;;;;;;5094185;28;20415;-63
2022/06/13 04:17:52;;;;;;;6.75;1.58;;;19.00;98.60;;;;;;5093709;28;20024;-63
2022/06/13 04:20:30;;;;;;;6.50;1.83;;;18.90;98.70;;;;;;5094083;28;20027;-63
2022/06/13 04:23:05;;;;;;;6.90;1.52;;;18.90;99.00;;;;;;5093697;28;20357;-62
2022/06/13 04:25:41;;;;;;;4.97;1.60;;;18.90;99.10;;;;;;5093315;28;20472;-64
2022/06/13 04:28:33;;;;;;;4.47;1.87;;;18.80;99.10;;;;;;5093531;28;20405;-63
2022/06/13 04:31:02;;;;;;;4.72;1.88;;;18.90;99.00;;;;;;5093534;28;20329;-62
2022/06/13 04:33:38;;;;;;;7.32;2.10;;;19.00;99.10;;;;;;5093428;28;20024;-63
2022/06/13 04:36:07;;;;;;;8.95;2.20;;;19.10;98.80;;;;;;5093488;28;20024;-63
2022/06/13 04:38:34;;;;;;;7.18;1.60;;;19.10;98.40;;;;;;5093236;28;20024;-63
2022/06/13 04:41:02;;;;;;;5.57;1.80;;;19.00;98.40;;;;;;5093155;28;20485;-63
2022/06/13 04:43:33;;;;;;;4.80;1.95;;;18.90;98.30;;;;;;5093066;28;20149;-63
2022/06/13 04:46:08;;;;;;;4.63;1.73;;;18.80;98.40;;;;;;5093039;28;20095;-63
2022/06/13 04:48:37;;;;;;;9.32;1.70;;;18.70;98.50;;;;;;5093034;28;20495;-63
2022/06/13 04:51:10;;;;;;;8.45;1.50;;;18.80;98.30;;;;;;5092962;28;20031;-63
2022/06/13 04:53:44;;;;;;;5.15;2.00;;;18.70;98.60;;;;;;5093270;28;20392;-63
2022/06/13 04:56:09;;;;;;;6.00;1.58;;;18.90;98.50;;;;;;5093507;28;20093;-62
2022/06/13 04:58:38;;;;;;;4.88;1.85;;;18.80;98.40;;;;;;5093034;28;20453;-63
2022/06/13 05:01:21;;;;;;;6.72;1.95;;;18.90;98.30;;;;;;5092826;28;20031;-60
2022/06/13 05:03:48;;;;;;;8.25;2.03;;;19.00;98.30;;;;;;5092941;28;20074;-62
2022/06/13 05:06:37;;;;;;;5.88;2.00;;;19.00;98.10;;;;;;5092749;28;20028;-63
2022/06/13 05:09:17;;;;;;;5.78;1.83;;;18.90;98.20;;;;;;5094088;28;20024;-63
2022/06/13 05:12:07;;;;;;;14.23;2.22;;;19.00;98.20;;;;;;5093576;28;20434;-63
2022/06/13 05:14:33;;;;;;;8.18;2.05;;;19.10;98.10;;;;;;5095353;28;20063;-62
2022/06/13 05:17:35;;;;;;;7.05;1.77;;;19.30;97.80;;;;;;5095570;28;20446;-63
2022/06/13 05:20:13;;;;;;;7.90;1.88;;;19.50;97.30;;;;;;5094209;28;20101;-63
2022/06/13 05:23:00;;;;;;;7.50;2.05;;;19.60;97.00;;;;;;5093234;28;20021;-63
2022/06/13 05:25:37;;;;;;;8.82;2.38;;;19.50;96.80;;;;;;5096885;28;20036;-63
2022/06/13 05:28:03;;;;;;;6.15;1.60;;;19.60;96.80;;;;;;5097396;28;20024;-64
2022/06/13 05:30:29;;;;;;;3.78;1.40;;;19.60;96.70;;;;;;5096895;28;20415;-64
2022/06/13 05:32:56;;;;;;;7.10;2.13;;;19.60;96.90;;;;;;5097241;28;20178;-64
2022/06/13 05:35:31;;;;;;;6.25;1.85;;;19.50;96.80;;;;;;5096491;28;20028;-64
2022/06/13 05:38:00;;;;;;;3.85;1.52;;;19.40;97.00;;;;;;5096986;28;20024;-64
2022/06/13 05:40:26;;;;;;;8.45;2.08;;;19.20;97.30;;;;;;5097013;28;20020;-64
2022/06/13 05:42:52;;;;;;;6.38;2.08;;;19.20;97.20;;;;;;5097011;28;20412;-63
2022/06/13 05:45:22;;;;;;;7.47;1.80;;;19.20;97.30;;;;;;5098866;28;20085;-64
2022/06/13 05:47:50;;;;;;;4.70;1.88;;;19.20;97.50;;;;;;5099285;28;20039;-64
2022/06/13 05:50:18;;;;;;;9.50;2.38;;;19.20;97.60;;;;;;5098714;28;20046;-63
2022/06/13 05:52:44;;;;;;;11.05;2.75;;;19.20;97.40;;;;;;5098681;28;20149;-65
2022/06/13 05:55:11;;;;;;;9.05;3.92;;;19.40;97.60;;;;;;5099301;28;20051;-63
2022/06/13 05:57:37;;;;;;;7.43;2.40;;;19.60;97.20;;;;;;5098213;28;20392;-63
2022/06/13 06:00:05;;;;;;;9.70;1.75;;;19.70;97.00;;;;;;5098380;28;20464;-64
2022/06/13 06:02:31;;;;;;;5.65;1.88;;;19.70;96.40;;;;;;5097699;28;20023;-64
2022/06/13 06:04:56;;;;;;;7.15;2.22;;;19.70;96.80;;;;;;5098426;28;20031;-63
2022/06/13 06:07:22;;;;;;;5.05;1.88;;;19.80;96.80;;;;;;5097290;28;20054;-63
2022/06/13 06:09:47;;;;;;;6.10;2.22;;;19.90;96.80;;;;;;5098072;28;20016;-63
2022/06/13 06:12:13;;;;;;;5.63;2.15;;;19.90;96.50;;;;;;5097870;28;20362;-63
2022/06/13 06:14:40;;;;;;;4.30;1.80;;;19.90;96.40;;;;;;5096867;28;20024;-63
2022/06/13 06:17:05;;;;;;;12.85;2.40;;;20.00;96.30;;;;;;5096979;28;20130;-64
2022/06/13 06:19:31;;;;;;;8.32;1.92;;;20.00;96.30;;;;;;5096626;28;20385;-64
2022/06/13 06:21:56;;;;;;;7.13;1.92;;;20.00;96.10;;;;;;5096445;28;20039;-67
2022/06/13 06:24:22;;;;;;;6.28;1.80;;;20.00;96.00;;;;;;5097798;28;20030;-65
2022/06/13 06:26:47;;;;;;;7.93;1.77;;;20.10;96.10;;;;;;5096725;28;20098;-67
2022/06/13 06:29:13;;;;;;;5.55;2.03;;;20.20;95.90;;;;;;5096696;28;20043;-67
2022/06/13 06:31:38;;;;;;;8.95;3.08;;;20.20;95.60;;;;;;5096325;28;20031;-67
2022/06/13 06:34:04;;;;;;;5.85;2.33;;;20.20;95.70;;;;;;5096446;28;20459;-66
2022/06/13 06:36:30;;;;;;;7.80;2.15;;;20.30;95.70;;;;;;5076595;28;20111;-67
2022/06/13 06:38:56;;;;;;;6.28;2.10;;;20.40;95.30;;;;;;5095788;28;20035;-66
2022/06/13 06:41:22;;;;;;;6.63;1.73;;;20.30;95.20;;;;;;5095927;28;20078;-66
2022/06/13 06:43:47;;;;;;;7.32;2.05;;;20.30;95.30;;;;;;5095648;28;20024;-66
2022/06/13 06:46:14;;;;;;;6.13;2.15;;;20.10;95.30;;;;;;5076974;28;20122;-67
2022/06/13 06:48:40;;;;;;;8.52;2.40;;;20.10;95.40;;;;;;5095475;28;20028;-66
2022/06/13 06:51:08;;;;;;;5.72;1.70;;;20.10;95.50;;;;;;5095695;28;20073;-66
2022/06/13 07:01:49;;;;;;;7.10;1.80;;;19.90;95.10;;;;;;5094733;28;20042;-67
2022/06/13 07:04:14;;;;;;;6.78;2.33;;;19.90;94.70;;;;;;5095015;28;20024;-67
2022/06/13 07:06:40;;;;;;;6.88;2.22;;;19.90;94.60;;;;;;5094737;28;20082;-67
2022/06/13 07:09:06;;;;;;;5.05;1.52;;;20.00;94.10;;;;;;5094673;28;20036;-65
2022/06/13 07:14:18;;;;;;;5.82;1.75;;;20.00;93.70;;;;;;5095121;28;20514;-66
2022/06/13 07:16:43;;;;;;;6.63;1.77;;;20.00;93.80;;;;;;5076395;28;20028;-66
2022/06/13 07:19:09;;;;;;;7.20;2.00;;;20.10;93.40;;;;;;5094934;28;20534;-66
2022/06/13 07:21:34;;;;;;;11.60;2.25;;;20.10;93.30;;;;;;5094529;28;20097;-66
2022/06/13 07:24:00;;;;;;;15.13;2.70;;;20.10;93.30;;;;;;5094510;28;20036;-68
2022/06/13 07:26:26;;;;;;;8.15;1.98;;;20.20;93.50;;;;;;5094811;28;20425;-67
2022/06/13 07:28:52;;;;;;;8.20;1.67;;;20.30;93.70;;;;;;5094353;28;20473;-67
2022/06/13 07:31:27;;;;;;;7.82;2.17;;;20.40;93.60;;;;;;5076148;28;20028;-67
2022/06/13 07:33:53;;;;;;;6.38;1.88;;;20.50;93.40;;;;;;5094423;28;20024;-67
2022/06/13 07:36:18;;;;;;;7.32;1.77;;;20.60;93.60;;;;;;5076333;28;20058;-67
2022/06/13 07:38:44;;;;;;;4.47;2.10;;;20.70;93.30;;;;;;5094460;28;20111;-68
2022/06/13 07:41:16;;;;;;;7.10;2.13;;;20.80;93.10;;;;;;5096491;28;20032;-67
2022/06/13 07:43:43;;;;;;;6.18;1.73;;;21.20;92.90;;;;;;5095171;28;20047;-68
2022/06/13 07:46:11;;;;;;;4.32;1.70;;;22.30;91.80;;;;;;5094616;28;20392;-64
2022/06/13 07:48:36;;;;;;;10.00;2.03;;;23.80;90.10;;;;;;5094680;28;20103;-69
2022/06/13 07:51:02;;;;;;;;;;;25.00;86.10;;;;;;5095376;28;20523;-68
2022/06/13 07:53:28;;;;;;;7.90;2.47;;;25.70;83.00;;;;;;5076496;28;19904;-65
2022/06/13 07:55:54;;;;;;;9.68;2.00;;;26.10;81.40;;;;;;5094431;28;20028;-69
2022/06/13 07:58:24;;;;;;;13.13;2.20;;;25.90;80.50;;;;;;5094262;28;20024;-69
2022/06/13 08:00:50;;;;;;;5.97;1.90;;;25.40;80.60;;;;;;5093923;28;20028;-67
2022/06/13 08:03:20;;;;;;;4.63;1.92;;;24.90;81.20;;;;;;5093746;28;20016;-67
2022/06/13 08:05:46;;;;;;;6.30;1.85;;;24.70;82.40;;;;;;5094081;28;20028;-67
2022/06/13 08:08:11;;;;;;;4.43;1.70;;;26.00;80.10;;;;;;5093009;28;20039;-67
2022/06/13 08:10:40;;;;;;;5.47;1.83;;;27.70;76.20;;;;;;5093767;28;20024;-67
2022/06/13 08:13:06;;;;;;;6.22;2.25;;;29.30;72.50;;;;;;5094162;28;20028;-67
2022/06/13 08:15:32;;;;;;;9.20;2.15;;;30.60;69.60;;;;;;5094358;28;20032;-68
2022/06/13 08:17:57;;;;;;;8.68;1.80;;;31.50;64.20;;;;;;5094067;28;20514;-68
2022/06/13 08:20:23;;;;;;;8.82;2.85;;;32.00;62.70;;;;;;5093880;28;20020;-68
2022/06/13 08:22:49;;;;;;;5.43;1.88;;;32.40;61.30;;;;;;5093415;28;20043;-68
2022/06/13 08:25:26;;;;;;;5.00;2.40;;;32.50;59.60;;;;;;5093494;28;20103;-68
2022/06/13 08:27:52;;;;;;;7.28;2.70;;;33.20;57.90;;;;;;5093678;28;20421;-68
2022/06/13 08:30:18;;;;;;;5.07;2.20;;;33.10;58.50;;;;;;5093433;28;20023;-67
2022/06/13 08:32:43;;;;;;;6.57;1.88;;;33.60;56.30;;;;;;5093540;28;20028;-67
2022/06/13 08:35:09;;;;;;;8.35;2.10;;;33.10;56.90;;;;;;5093941;28;20031;-67
2022/06/13 08:37:35;;;;;;;5.18;1.88;;;32.00;57.30;;;;;;5093918;28;20036;-67
2022/06/13 08:40:01;;;;;;;6.70;2.22;;;31.50;58.10;;;;;;5093604;28;20099;-67
2022/06/13 08:42:43;;;;;;;4.85;2.10;;;32.00;57.80;;;;;;5075723;28;20162;-68
2022/06/13 08:45:28;;;;;;;6.45;2.63;;;32.10;57.40;;;;;;5093666;28;20373;-68
2022/06/13 08:48:11;;;;;;;6.72;2.50;;;32.90;56.90;;;;;;5093829;28;20016;-68
2022/06/13 08:50:57;;;;;;;5.40;2.58;;;34.70;54.90;;;;;;5093172;28;20467;-68
2022/06/13 08:53:27;;;;;;;4.70;1.88;;;35.00;53.60;;;;;;5093866;28;20532;-68
2022/06/13 08:56:05;;;;;;;5.57;1.92;;;34.10;54.10;;;;;;5093745;28;20028;-67
2022/06/13 08:58:54;;;;;;;4.75;1.77;;;33.40;53.50;;;;;;5076733;28;20028;-68
2022/06/13 09:01:30;;;;;;;5.55;1.52;;;31.20;54.50;;;;;;5093530;28;20537;-67
2022/06/13 09:04:25;;;;;;;4.35;1.45;;;29.50;56.60;;;;;;5093694;28;20468;-67
2022/06/13 09:07:01;;;;;;;7.38;2.17;;;29.50;57.90;;;;;;5091042;28;20504;-67
2022/06/13 09:09:40;;;;;;;4.55;1.85;;;30.30;57.20;;;;;;5093407;28;20024;-67
2022/06/13 09:12:17;;;;;;;5.43;1.90;;;31.50;56.70;;;;;;5093541;28;20095;-69
2022/06/13 09:14:57;;;;;;;5.72;1.92;;;32.50;55.10;;;;;;5075477;28;20460;-68
2022/06/13 09:17:37;;;;;;;4.35;2.08;;;32.50;54.70;;;;;;5093297;28;20031;-69
2022/06/13 09:20:16;;;;;;;7.45;1.98;;;31.70;55.80;;;;;;5074870;28;20373;-69
2022/06/13 09:23:14;;;;;;;3.60;1.83;;;30.20;57.60;;;;;;5093189;28;20032;-69
2022/06/13 09:25:52;;;;;;;4.43;1.50;;;29.20;58.30;;;;;;5037874;28;20033;-67
2022/06/13 09:28:28;;;;;;;9.43;2.08;;;28.80;58.90;;;;;;5074627;28;20012;-68
2022/06/13 09:31:07;;;;;;;6.75;2.45;;;29.70;57.60;;;;;;5093327;28;20042;-68
2022/06/13 09:33:36;;;;;;;5.35;2.33;;;30.00;56.60;;;;;;5092917;28;20552;-68
2022/06/13 09:36:20;;;;;;;5.22;2.08;;;30.90;55.70;;;;;;5092545;28;20461;-68
2022/06/13 09:38:57;;;;;;;4.22;1.70;;;32.00;54.20;;;;;;5092665;28;20489;-68
2022/06/13 09:41:30;;;;;;;4.63;1.83;;;33.40;52.20;;;;;;5093048;28;20067;-69
2022/06/13 09:44:08;;;;;;;2.95;1.38;;;34.60;51.20;;;;;;5093262;28;20111;-69
2022/06/13 09:46:53;;;;;;;4.78;1.60;;;35.00;49.90;;;;;;5092662;28;20079;-69
2022/06/13 09:49:21;;;;;;;7.38;1.75;;;35.50;49.80;;;;;;5092561;28;20053;-68
2022/06/13 09:52:21;;;;;;;5.50;1.73;;;34.70;49.90;;;;;;5092699;28;20127;-68
2022/06/13 09:55:00;;;;;;;2.88;1.70;;;32.70;52.20;;;;;;5074305;28;20020;-69
2022/06/13 09:57:43;;;;;;;4.30;1.67;;;32.70;52.20;;;;;;5092354;28;20036;-70
2022/06/13 10:00:18;;;;;;;5.05;1.45;;;33.60;49.30;;;;;;5073957;28;20024;-70
2022/06/13 10:02:54;;;;;;;1.70;1.13;;;34.80;47.30;;;;;;5092118;28;20020;-69
2022/06/13 10:05:38;;;;;;;4.05;1.00;;;36.10;46.40;;;;;;5092024;28;20095;-71
2022/06/13 10:08:41;;;;;;;6.93;1.63;;;37.30;45.40;;;;;;5092151;28;20032;-68
2022/06/13 10:11:23;;;;;;;4.72;1.25;;;37.20;44.30;;;;;;5093078;28;20260;-67
2022/06/13 10:14:07;;;;;;;5.10;1.75;;;36.90;43.80;;;;;;5096214;28;20077;-68
2022/06/13 10:16:35;;;;;;;4.93;1.70;;;36.30;44.10;;;;;;5096351;28;20062;-68
2022/06/13 10:19:24;;;;;;;4.90;1.65;;;34.40;46.90;;;;;;5096129;28;20483;-68
2022/06/13 10:22:19;;;;;;;3.50;1.75;;;34.20;48.20;;;;;;5087345;28;20040;-68
2022/06/13 10:24:51;;;;;;;3.67;1.80;;;33.20;48.80;;;;;;5095847;28;20128;-67
2022/06/13 10:27:57;;;;;;;3.45;1.50;;;32.10;50.00;;;;;;5095652;28;20103;-68
2022/06/13 10:30:34;;;;;;;2.65;1.38;;;32.40;49.00;;;;;;5058364;28;20035;-68
2022/06/13 10:33:27;;;;;;;4.47;1.60;;;31.30;49.90;;;;;;5095632;28;20031;-68
2022/06/13 10:36:15;;;;;;;4.25;1.33;;;30.10;51.00;;;;;;5095414;28;20024;-68
2022/06/13 10:38:49;;;;;;;4.03;2.00;;;29.50;51.50;;;;;;5096041;28;20020;-68
2022/06/13 10:41:15;;;;;;;3.05;1.20;;;28.90;52.60;;;;;;5077186;28;20134;-69
2022/06/13 10:43:42;;;;;;;3.75;1.27;;;28.90;52.00;;;;;;5095757;28;20473;-68
2022/06/13 10:46:13;;;;;;;4.78;1.40;;;29.10;50.70;;;;;;5095786;28;20016;-67
2022/06/13 10:48:47;;;;;;;4.47;1.38;;;30.10;49.50;;;;;;5095604;28;20024;-68
2022/06/13 10:51:12;;;;;;;4.65;1.48;;;31.80;48.20;;;;;;5095496;28;20077;-68
2022/06/13 10:53:54;;;;;;;2.63;1.27;;;32.80;47.20;;;;;;5095486;28;20020;-68
2022/06/13 10:56:33;;;;;;;2.95;1.20;;;31.60;47.60;;;;;;5077016;28;20020;-69
2022/06/13 10:58:59;;;;;;;3.10;1.20;;;30.40;48.90;;;;;;5095772;28;20020;-68
2022/06/13 11:01:28;;;;;;;3.42;1.33;;;29.10;50.70;;;;;;5095104;28;20028;-67
2022/06/13 11:04:19;;;;;;;3.03;1.13;;;28.20;51.40;;;;;;5095646;28;20460;-67
2022/06/13 11:06:54;;;;;;;4.22;1.75;;;28.90;52.20;;;;;;5095286;28;20371;-69
2022/06/13 11:09:41;;;;;;;5.82;1.60;;;30.40;48.90;;;;;;5095457;28;20024;-69
2022/06/13 11:12:23;;;;;;;4.80;1.23;;;31.30;48.60;;;;;;5095196;28;20024;-67
2022/06/13 11:23:15;;;;;;;3.08;1.10;;;27.70;50.60;;;;;;5094992;28;20035;-67
2022/06/13 11:25:41;;;;;;;3.75;1.17;;;27.30;51.40;;;;;;5094773;28;20388;-67
2022/06/13 11:28:09;;;;;;;4.28;1.20;;;27.20;51.30;;;;;;5094850;28;20024;-68
2022/06/13 11:30:40;;;;;;;5.03;1.20;;;27.00;51.80;;;;;;5094889;28;20019;-67
2022/06/13 11:33:06;;;;;;;4.45;1.38;;;26.90;52.00;;;;;;5095220;28;20035;-67
2022/06/13 11:35:53;;;;;;;3.13;1.38;;;26.70;52.20;;;;;;5095001;28;20024;-68
2022/06/13 11:38:31;;;;;;;4.45;1.40;;;26.40;52.80;;;;;;5077233;28;20028;-68
2022/06/13 11:41:18;;;;;;;4.97;1.50;;;26.20;52.90;;;;;;5095055;28;20068;-68
2022/06/13 11:43:52;;;;;;;2.78;1.20;;;26.10;53.10;;;;;;5092699;28;20024;-68
2022/06/13 11:46:27;;;;;;;4.70;1.33;;;25.80;53.40;;;;;;5094293;28;20058;-66
2022/06/13 11:49:02;;;;;;;4.78;1.48;;;25.90;53.50;;;;;;5094088;28;20051;-67
2022/06/13 11:51:42;;;;;;;3.70;1.08;;;26.10;53.60;;;;;;5094204;28;20055;-67
2022/06/13 11:54:24;;;;;;;2.10;1.10;;;25.80;53.20;;;;;;5094007;28;20472;-67
2022/06/13 11:57:13;;;;;;;3.83;1.10;;;25.70;53.60;;;;;;5094128;28;20047;-68
2022/06/13 12:00:01;;;;;;;2.75;1.17;;;25.90;53.40;;;;;;5094419;28;20024;-68
2022/06/13 12:02:51;;;;;;;1.88;1.20;;;26.00;53.30;;;;;;5094022;28;20020;-68
2022/06/13 12:05:27;;;;;;;7.95;1.42;;;25.70;52.70;;;;;;5093792;28;20024;-67
2022/06/13 12:08:17;;;;;;;4.10;1.25;;;25.50;53.30;;;;;;5094215;28;20028;-68
2022/06/13 12:11:01;;;;;;;9.52;1.77;;;25.50;53.60;;;;;;5094204;28;20097;-66
2022/06/13 12:13:31;;;;;;;1.92;0.90;;;25.70;53.30;;;;;;5093857;28;20024;-66
2022/06/13 12:16:22;;;;;;;2.35;1.00;;;25.80;52.80;;;;;;5093990;28;20032;-67
2022/06/13 12:19:09;;;;;;;1.75;1.00;;;25.80;52.80;;;;;;5075878;28;20034;-67
2022/06/13 12:21:47;;;;;;;3.28;1.25;;;25.60;52.70;;;;;;5075836;28;20047;-68
2022/06/13 12:24:27;;;;;;;4.10;1.40;;;25.60;53.10;;;;;;5094018;28;20109;-68
2022/06/13 12:27:14;;;;;;;2.97;1.13;;;25.40;53.20;;;;;;5094048;28;20024;-69
2022/06/13 12:29:45;;;;;;;2.75;1.15;;;25.50;54.10;;;;;;5093632;28;20051;-68
2022/06/13 12:32:27;;;;;;;2.45;1.10;;;25.50;53.40;;;;;;5094402;28;20031;-69
2022/06/13 12:35:17;;;;;;;4.15;1.52;;;25.50;53.80;;;;;;5092930;28;20040;-67
2022/06/13 12:37:52;;;;;;;4.50;1.60;;;25.60;53.80;;;;;;5075825;28;20024;-68
2022/06/13 12:40:41;;;;;;;4.00;1.80;;;25.70;53.80;;;;;;5075756;28;20396;-67
2022/06/13 12:43:16;;;;;;;3.10;1.20;;;25.80;53.50;;;;;;5093344;28;20023;-68
2022/06/13 12:46:02;;;;;;;4.22;1.67;;;25.80;53.30;;;;;;5093519;28;20031;-69
2022/06/13 12:48:50;;;;;;;4.43;1.33;;;26.00;53.50;;;;;;5093585;28;20031;-69
2022/06/13 12:51:28;;;;;;;7.55;1.98;;;25.80;53.60;;;;;;5093617;28;20028;-67
2022/06/13 12:54:05;;;;;;;7.05;1.58;;;25.80;54.60;;;;;;5093276;28;20032;-67
2022/06/13 12:56:44;;;;;;;3.40;1.38;;;25.70;54.10;;;;;;5093281;28;20054;-68
2022/06/13 12:59:26;;;;;;;4.40;1.40;;;25.60;54.10;;;;;;5093161;28;20524;-67
2022/06/13 13:02:32;;;;;;;3.97;1.38;;;25.50;54.30;;;;;;5093381;28;20024;-66
2022/06/13 13:05:01;;;;;;;2.30;1.40;;;25.50;54.40;;;;;;5093141;28;20024;-67
2022/06/13 13:07:49;;;;;;;1.40;1.15;;;25.60;53.50;;;;;;5092725;28;20024;-68
2022/06/13 13:10:36;;;;;;;3.42;1.58;;;25.70;53.80;;;;;;5075471;28;20021;-68
2022/06/13 13:13:23;;;;;;;2.92;1.48;;;25.90;52.60;;;;;;5093439;28;20031;-68
2022/06/13 13:16:06;;;;;;;1.92;1.15;;;25.80;52.90;;;;;;5093521;28;20093;-68
2022/06/13 13:18:57;;;;;;;6.55;1.60;;;25.70;53.70;;;;;;5094019;28;20024;-69
2022/06/13 13:21:30;;;;;;;4.43;1.50;;;25.70;53.50;;;;;;5093299;28;20028;-67
2022/06/13 13:24:11;;;;;;;2.50;1.17;;;25.80;52.40;;;;;;5093578;28;20020;-68
2022/06/13 13:26:56;;;;;;;3.63;1.10;;;25.90;52.40;;;;;;5097185;28;20020;-66
2022/06/13 13:29:37;;;;;;;5.00;1.70;;;25.90;53.00;;;;;;5096970;28;20112;-66
2022/06/13 13:32:20;;;;;;;4.18;1.65;;;25.90;53.90;;;;;;5095659;28;20100;-67
2022/06/13 13:35:23;;;;;;;2.92;1.20;;;25.90;54.00;;;;;;5093588;28;20078;-66
2022/06/13 13:37:54;;;;;;;4.80;1.85;;;25.90;53.20;;;;;;5092814;28;20103;-66
2022/06/13 13:40:43;;;;;;;4.07;1.45;;;25.90;53.40;;;;;;5093022;28;20516;-66
2022/06/13 13:43:36;;;;;;;2.92;1.42;;;25.80;52.70;;;;;;5093508;28;20025;-66
2022/06/13 13:46:21;;;;;;;5.03;1.45;;;25.70;52.70;;;;;;5095911;28;20024;-65
2022/06/13 13:49:01;;;;;;;3.65;1.40;;;25.60;52.80;;;;;;5096626;28;20099;-65
2022/06/13 13:51:39;;;;;;;2.72;1.30;;;25.70;53.70;;;;;;5079223;28;20031;-65
2022/06/13 13:54:22;;;;;;;5.28;1.25;;;25.80;53.10;;;;;;5096944;28;20469;-65